Time;durP1;ratioP1;P1;durP2;ratioP2;P2;SDS_P1;SDS_P2;PMS_P1;PMS_P2;Temp;Humidity;BMP_temperature;BMP_pressure;BME280_temperature;BME280_humidity;BME280_pressure;Samples;Min_cycle;Max_cycle;Signal;HPM_P1;HPM_P2
2021/11/24 00:00:48;;;;;;;7.63;5.17;;;;;;;-2.71;88.83;96314.22;5031501;28;20175;-84
2021/11/24 00:03:14;;;;;;;6.27;5.27;;;;;;;-2.76;89.24;96310.13;5030981;28;20691;-83
2021/11/24 00:05:39;;;;;;;6.67;5.40;;;;;;;-2.80;89.69;96301.78;5015253;28;20195;-83
2021/11/24 00:08:05;;;;;;;6.77;5.33;;;;;;;-2.70;89.46;96304.88;5031552;28;20257;-83
2021/11/24 00:10:33;;;;;;;6.83;5.00;;;;;;;-2.75;89.38;96304.16;5031316;28;20226;-83
2021/11/24 00:12:59;;;;;;;8.00;5.63;;;;;;;-2.78;89.31;96300.03;5031005;28;20202;-83
2021/11/24 00:15:24;;;;;;;7.57;5.63;;;;;;;-2.83;89.57;96301.88;5032047;28;20199;-83
2021/11/24 00:17:50;;;;;;;7.97;5.50;;;;;;;-2.83;89.49;96301.03;5032193;28;20269;-83
2021/11/24 00:20:15;;;;;;;9.47;6.03;;;;;;;-2.83;89.92;96313.75;5032915;28;20175;-84
2021/11/24 00:22:41;;;;;;;6.83;5.07;;;;;;;-2.89;89.41;96299.53;5047552;28;20210;-83
2021/11/24 00:25:07;;;;;;;6.43;5.27;;;;;;;-2.93;89.39;96303.03;5054781;28;20246;-83
2021/11/24 00:27:32;;;;;;;6.37;5.13;;;;;;;-2.94;89.98;96303.91;5043137;28;20204;-83
2021/11/24 00:29:58;;;;;;;6.80;5.10;;;;;;;-2.99;90.23;96300.72;5058711;28;20549;-82
2021/11/24 00:32:23;;;;;;;7.73;5.07;;;;;;;-2.98;90.38;96299.81;5058376;28;20331;-83
2021/11/24 00:34:49;;;;;;;8.70;5.87;;;;;;;-2.98;90.40;96307.44;5041910;28;20179;-83
2021/11/24 00:37:14;;;;;;;8.40;5.27;;;;;;;-3.00;90.22;96296.50;5058381;28;20203;-83
2021/11/24 00:39:39;;;;;;;7.23;5.73;;;;;;;-2.99;90.21;96301.53;5041251;28;20196;-83
2021/11/24 00:42:05;;;;;;;9.67;5.93;;;;;;;-2.93;89.83;96295.41;5040170;28;20195;-83
2021/11/24 00:44:30;;;;;;;8.97;6.23;;;;;;;-2.98;89.65;96293.03;5041243;28;20194;-83
2021/11/24 00:46:55;;;;;;;7.87;6.13;;;;;;;-2.86;89.51;96291.81;5040299;28;20206;-82
2021/11/24 00:49:21;;;;;;;9.17;6.00;;;;;;;-2.86;89.63;96286.72;5040682;28;20175;-83
2021/11/24 00:51:46;;;;;;;6.67;5.87;;;;;;;-2.80;89.81;96291.63;5052846;28;20246;-83
2021/11/24 00:54:11;;;;;;;11.53;7.60;;;;;;;-2.81;89.61;96295.03;5033360;28;20656;-83
2021/11/24 00:56:37;;;;;;;10.40;7.53;;;;;;;-2.67;89.91;96292.88;5033312;28;20183;-83
2021/11/24 00:59:05;;;;;;;11.87;7.17;;;;;;;-2.61;89.57;96294.41;5033298;28;20183;-83
2021/11/24 01:01:31;;;;;;;9.37;7.10;;;;;;;-2.59;88.98;96290.09;5049262;28;20179;-83
2021/11/24 01:03:56;;;;;;;9.67;6.93;;;;;;;-2.57;88.73;96284.06;5033282;28;20231;-83
2021/11/24 01:06:22;;;;;;;12.30;7.50;;;;;;;-2.70;89.09;96274.34;5017152;28;20326;-83
2021/11/24 01:08:47;;;;;;;10.20;7.57;;;;;;;-2.71;89.26;96278.63;5033452;28;20190;-82
2021/11/24 01:11:13;;;;;;;8.43;6.60;;;;;;;-2.66;89.47;96284.38;5049171;28;20180;-82
2021/11/24 01:13:38;;;;;;;10.17;7.27;;;;;;;-2.71;89.18;96286.25;5033225;28;20204;-85
2021/11/24 01:16:04;;;;;;;13.37;7.33;;;;;;;-2.70;89.39;96281.97;5032907;28;20180;-84
2021/11/24 01:18:29;;;;;;;12.43;6.80;;;;;;;-2.74;89.09;96288.03;5033055;28;20218;-84
2021/11/24 01:20:55;;;;;;;9.73;6.93;;;;;;;-2.74;89.46;96288.03;5032955;28;20182;-82
2021/11/24 01:23:20;;;;;;;9.63;7.43;;;;;;;-2.78;88.98;96284.78;5032695;28;20726;-84
2021/11/24 01:25:46;;;;;;;13.87;6.80;;;;;;;-2.70;89.40;96287.91;5033508;28;20276;-84
2021/11/24 01:28:11;;;;;;;10.77;7.27;;;;;;;-2.75;89.05;96279.56;5016612;28;20691;-83
2021/11/24 01:30:36;;;;;;;12.47;7.50;;;;;;;-2.82;89.03;96288.31;5028286;28;20190;-84
2021/11/24 01:33:02;;;;;;;9.33;6.77;;;;;;;-2.88;89.60;96279.16;5032480;28;20214;-84
2021/11/24 01:35:28;;;;;;;9.93;7.47;;;;;;;-2.89;90.17;96276.66;5033101;28;20184;-84
2021/11/24 01:37:53;;;;;;;10.30;7.23;;;;;;;-2.93;90.10;96280.16;5033081;28;20198;-84
2021/11/24 01:40:19;;;;;;;10.40;7.80;;;;;;;-2.97;90.23;96278.63;5033149;28;20170;-83
2021/11/24 01:42:45;;;;;;;11.70;7.33;;;;;;;-2.97;90.56;96271.00;5032291;28;20195;-83
2021/11/24 01:45:14;;;;;;;9.13;7.20;;;;;;;-2.95;90.68;96271.75;5033427;28;20183;-84
2021/11/24 01:47:39;;;;;;;9.17;6.47;;;;;;;-3.00;90.06;96269.38;5016145;28;20282;-84
2021/11/24 01:50:05;;;;;;;9.60;6.70;;;;;;;-2.98;90.62;96266.78;5049787;28;20171;-84
2021/11/24 01:52:32;;;;;;;8.17;6.67;;;;;;;-3.02;90.33;96270.28;5032477;28;20196;-84
2021/11/24 01:54:57;;;;;;;9.00;6.40;;;;;;;-3.01;90.41;96262.63;5016547;28;20217;-84
2021/11/24 01:57:27;;;;;;;11.60;7.93;;;;;;;-3.07;90.19;96267.09;5016466;28;20175;-84
2021/11/24 01:59:52;;;;;;;10.53;7.40;;;;;;;-3.08;90.59;96270.50;5032658;28;20172;-84
2021/11/24 02:02:18;;;;;;;11.07;6.87;;;;;;;-3.11;90.55;96258.69;5032149;28;20319;-84
2021/11/24 02:04:43;;;;;;;9.97;7.50;;;;;;;-3.06;90.45;96256.88;5032810;28;20505;-84
2021/11/24 02:07:09;;;;;;;14.17;7.40;;;;;;;-3.14;90.54;96256.28;5032705;28;20260;-83
2021/11/24 02:09:34;;;;;;;12.20;8.30;;;;;;;-3.20;91.15;96257.28;5033001;28;20648;-84
2021/11/24 02:12:00;;;;;;;10.73;7.73;;;;;;;-3.23;90.97;96254.00;5015454;28;20620;-84
2021/11/24 02:14:26;;;;;;;11.57;7.87;;;;;;;-3.26;91.15;96251.56;5049380;28;20183;-84
2021/11/24 02:16:53;;;;;;;11.80;7.30;;;;;;;-3.26;90.98;96246.50;5016659;28;20245;-83
2021/11/24 02:19:20;;;;;;;10.97;7.83;;;;;;;-3.27;91.36;96239.72;5016210;28;20634;-84
2021/11/24 02:21:51;;;;;;;10.77;7.27;;;;;;;-3.17;91.07;96230.97;5015171;28;20191;-83
2021/11/24 02:24:18;;;;;;;10.33;7.63;;;;;;;-3.25;91.42;96227.84;5016119;28;20261;-83
2021/11/24 02:26:43;;;;;;;12.03;7.70;;;;;;;-3.31;91.53;96230.56;5016415;28;20249;-84
2021/11/24 02:29:09;;;;;;;10.93;7.50;;;;;;;-3.33;90.97;96220.44;5033588;28;20183;-84
2021/11/24 02:31:34;;;;;;;9.87;7.63;;;;;;;-3.33;91.11;96227.25;5049329;28;20240;-84
2021/11/24 02:34:00;;;;;;;11.17;7.33;;;;;;;-3.29;90.98;96221.16;5015922;28;20189;-84
2021/11/24 02:36:26;;;;;;;10.87;7.97;;;;;;;-3.33;91.70;96212.84;5015815;28;20179;-83
2021/11/24 02:38:52;;;;;;;14.07;7.83;;;;;;;-3.39;91.01;96215.56;5015605;28;20209;-83
2021/11/24 02:41:17;;;;;;;13.43;8.50;;;;;;;-3.42;91.66;96215.66;5031594;28;20183;-82
2021/11/24 02:43:43;;;;;;;11.40;8.23;;;;;;;-3.44;91.84;96209.81;5015693;28;20744;-83
2021/11/24 02:46:09;;;;;;;11.40;8.60;;;;;;;-3.45;91.58;96206.41;5049076;28;20178;-83
2021/11/24 02:48:34;;;;;;;13.00;8.67;;;;;;;-3.43;92.07;96209.75;5032117;28;20179;-82
2021/11/24 02:50:59;;;;;;;13.63;8.73;;;;;;;-3.42;92.01;96202.97;5048884;28;20201;-83
2021/11/24 02:53:26;;;;;;;9.97;7.80;;;;;;;-3.44;92.01;96210.63;5031146;28;20198;-83
2021/11/24 02:55:52;;;;;;;15.33;8.87;;;;;;;-3.33;91.85;96204.38;5048491;28;20261;-83
2021/11/24 02:58:18;;;;;;;10.60;8.60;;;;;;;-3.39;91.67;96205.38;5015000;28;20650;-83
2021/11/24 03:00:43;;;;;;;10.60;6.93;;;;;;;-3.33;91.85;96195.06;5015119;28;20194;-83
2021/11/24 03:03:09;;;;;;;14.80;8.57;;;;;;;-3.42;92.08;96195.34;5014561;28;20581;-84
2021/11/24 03:05:35;;;;;;;10.93;7.83;;;;;;;-3.34;92.04;96185.78;5015271;28;20554;-83
2021/11/24 03:08:00;;;;;;;13.40;7.80;;;;;;;-3.42;92.09;96185.19;5031633;28;20214;-83
2021/11/24 03:10:26;;;;;;;11.67;7.90;;;;;;;-3.38;92.07;96184.19;5015072;28;20610;-83
2021/11/24 03:12:51;;;;;;;11.53;8.00;;;;;;;-3.48;92.00;96181.13;5013945;28;20582;-83
2021/11/24 03:15:17;;;;;;;12.43;7.83;;;;;;;-3.37;91.76;96177.41;5015267;28;20179;-84
2021/11/24 03:17:42;;;;;;;12.33;9.00;;;;;;;-3.39;91.73;96181.72;5014948;28;20189;-83
2021/11/24 03:20:09;;;;;;;12.67;9.00;;;;;;;-3.47;91.71;96179.41;5015026;28;20186;-83
2021/11/24 03:22:35;;;;;;;10.50;8.33;;;;;;;-3.43;91.82;96178.44;5014297;28;20264;-83
2021/11/24 03:25:00;;;;;;;14.33;8.53;;;;;;;-3.37;91.95;96174.88;5015187;28;20280;-83
2021/11/24 03:27:45;;;;;;;13.43;8.27;;;;;;;-3.43;92.02;96170.81;5014815;28;20669;-83
2021/11/24 03:30:17;;;;;;;11.03;8.47;;;;;;;-3.51;91.94;96170.22;5031577;28;20182;-83
2021/11/24 03:32:42;;;;;;;14.27;8.47;;;;;;;-3.54;92.01;96170.31;5031696;28;20840;-83
2021/11/24 03:35:08;;;;;;;12.50;8.70;;;;;;;-3.56;92.28;96172.06;5014808;28;20260;-83
2021/11/24 03:37:33;;;;;;;17.50;9.40;;;;;;;-3.57;92.20;96165.34;5031825;28;20321;-83
2021/11/24 03:39:59;;;;;;;11.30;9.37;;;;;;;-3.60;92.18;96158.66;5014784;28;20183;-83
2021/11/24 03:42:24;;;;;;;11.53;8.33;;;;;;;-3.57;92.20;96156.00;5030877;28;20201;-83
2021/11/24 03:44:50;;;;;;;14.23;8.90;;;;;;;-3.58;92.48;96161.13;5015386;28;20202;-84
2021/11/24 03:47:15;;;;;;;12.53;8.67;;;;;;;-3.53;92.52;96156.75;5015496;28;20292;-84
2021/11/24 03:49:41;;;;;;;13.07;9.33;;;;;;;-3.51;92.09;96155.84;5048164;28;20209;-84
2021/11/24 03:52:07;;;;;;;11.93;8.80;;;;;;;-3.54;92.11;96155.06;5030809;28;20211;-84
2021/11/24 03:54:32;;;;;;;17.87;10.07;;;;;;;-3.46;91.88;96155.66;5031099;28;20207;-83
2021/11/24 03:56:57;;;;;;;13.00;9.67;;;;;;;-3.56;92.56;96154.31;5031599;28;20190;-83
2021/11/24 03:59:23;;;;;;;15.73;10.30;;;;;;;-3.45;92.97;96154.78;5014949;28;20638;-83
2021/11/24 04:01:48;;;;;;;16.30;10.60;;;;;;;-3.45;92.88;96144.63;5015561;28;20237;-83
2021/11/24 04:04:14;;;;;;;14.07;9.93;;;;;;;-3.47;92.71;96143.84;5032715;28;20188;-82
2021/11/24 04:06:39;;;;;;;15.07;10.00;;;;;;;-3.52;92.77;96145.72;5016631;28;20203;-83
2021/11/24 04:09:05;;;;;;;18.53;10.60;;;;;;;-3.50;93.00;96143.97;5038824;28;20180;-82
2021/11/24 04:11:30;;;;;;;17.40;10.90;;;;;;;-3.53;93.36;96147.44;5056450;28;20239;-82
2021/11/24 04:13:55;;;;;;;22.40;11.50;;;;;;;-3.48;93.14;96149.81;5024609;28;20201;-82
2021/11/24 04:16:21;;;;;;;18.30;12.27;;;;;;;-3.54;93.13;96150.81;5040810;28;20182;-82
2021/11/24 04:18:48;;;;;;;21.23;13.60;;;;;;;-3.51;93.84;96150.75;5040819;28;20175;-82
2021/11/24 04:21:17;;;;;;;18.27;12.30;;;;;;;-3.54;93.44;96142.38;5023370;28;20186;-83
2021/11/24 04:23:43;;;;;;;16.73;12.50;;;;;;;-3.60;93.35;96142.59;5016676;28;20245;-82
2021/11/24 04:26:08;;;;;;;20.10;12.73;;;;;;;-3.62;93.79;96129.09;5016638;28;20612;-83
2021/11/24 04:28:33;;;;;;;20.60;13.20;;;;;;;-3.60;94.01;96140.06;5017726;28;20989;-82
2021/11/24 04:30:59;;;;;;;21.90;13.70;;;;;;;-3.61;93.71;96139.22;5018046;28;20546;-83
2021/11/24 04:33:24;;;;;;;21.63;13.37;;;;;;;-3.61;93.84;96138.41;5032685;28;20677;-83
2021/11/24 04:35:49;;;;;;;20.17;12.40;;;;;;;-3.61;94.01;96140.94;5034177;28;20209;-83
2021/11/24 04:38:15;;;;;;;19.17;12.63;;;;;;;-3.67;94.06;96136.88;5017547;28;20206;-82
2021/11/24 04:40:40;;;;;;;19.97;13.10;;;;;;;-3.72;94.24;96131.09;5017338;28;20188;-83
2021/11/24 04:43:09;;;;;;;20.73;13.23;;;;;;;-3.69;94.89;96125.13;5017295;28;20210;-80
2021/11/24 04:45:34;;;;;;;19.87;13.60;;;;;;;-3.72;94.59;96131.91;5010311;28;20350;-80
2021/11/24 04:48:00;;;;;;;21.87;14.13;;;;;;;-3.71;94.71;96128.53;5013088;28;20306;-81
2021/11/24 04:50:25;;;;;;;22.83;13.67;;;;;;;-3.74;94.81;96130.31;5002987;28;20205;-81
2021/11/24 04:52:50;;;;;;;24.77;14.70;;;;;;;-3.66;94.76;96127.53;5043512;28;20296;-80
2021/11/24 04:55:16;;;;;;;23.60;14.53;;;;;;;-3.69;95.03;96128.47;5016300;28;20175;-83
2021/11/24 04:57:41;;;;;;;28.13;14.50;;;;;;;-3.75;94.50;96126.94;5016203;28;20190;-81
2021/11/24 05:00:14;;;;;;;23.47;15.17;;;;;;;-3.73;94.67;96131.97;5014293;28;20740;-81
2021/11/24 05:02:39;;;;;;;24.07;14.70;;;;;;;-3.75;95.32;96126.13;5015797;28;20685;-80
2021/11/24 05:05:05;;;;;;;22.73;14.40;;;;;;;-3.73;94.86;96127.72;5015611;28;20190;-81
2021/11/24 05:07:30;;;;;;;21.13;14.07;;;;;;;-3.73;95.74;96130.25;5031993;28;20214;-81
2021/11/24 05:09:55;;;;;;;25.93;15.60;;;;;;;-3.72;95.72;96128.56;5032107;28;20205;-81
2021/11/24 05:12:21;;;;;;;25.90;15.30;;;;;;;-3.73;95.33;96129.44;5032535;28;20225;-82
2021/11/24 05:14:49;;;;;;;23.00;14.33;;;;;;;-3.78;95.63;96121.97;5015915;28;20185;-83
2021/11/24 05:17:16;;;;;;;23.67;15.03;;;;;;;-3.78;96.39;96124.50;5015710;28;20261;-83
2021/11/24 05:19:46;;;;;;;30.90;18.27;;;;;;;-3.58;96.03;96123.88;5016567;28;20186;-82
2021/11/24 05:22:12;;;;;;;26.33;15.77;;;;;;;-3.69;95.67;96131.03;5016210;28;20195;-83
2021/11/24 05:24:38;;;;;;;25.53;15.50;;;;;;;-3.56;95.46;96126.38;5015422;28;20195;-83
2021/11/24 05:27:04;;;;;;;23.87;14.73;;;;;;;-3.65;95.70;96127.50;5015755;28;20858;-83
2021/11/24 05:29:29;;;;;;;25.40;15.90;;;;;;;-3.74;95.90;96128.59;5015642;28;20179;-83
2021/11/24 05:31:54;;;;;;;22.67;14.90;;;;;;;-3.62;95.86;96116.41;5015567;28;20199;-83
2021/11/24 05:34:20;;;;;;;22.37;14.33;;;;;;;-3.59;95.28;96119.69;5032430;28;20201;-83
2021/11/24 05:36:45;;;;;;;21.73;13.50;;;;;;;-3.51;94.88;96114.38;5031878;28;20170;-83
2021/11/24 05:39:11;;;;;;;20.37;12.73;;;;;;;-3.48;94.79;96110.03;5015705;28;20175;-83
2021/11/24 05:41:40;;;;;;;19.53;13.50;;;;;;;-3.49;95.14;96115.16;5015189;28;20549;-84
2021/11/24 05:44:17;;;;;;;16.63;12.13;;;;;;;-3.47;94.56;96114.22;5016027;28;20194;-84
2021/11/24 05:46:50;;;;;;;18.93;12.33;;;;;;;-3.42;94.00;96098.84;5032962;28;20202;-83
2021/11/24 05:49:16;;;;;;;16.70;11.80;;;;;;;-3.34;94.33;96109.59;5016407;28;20228;-83
2021/11/24 05:51:41;;;;;;;19.13;12.57;;;;;;;-3.37;94.12;96104.59;5014577;28;20178;-83
2021/11/24 05:54:07;;;;;;;19.20;12.33;;;;;;;-3.33;93.89;96108.69;5016026;28;20198;-83
2021/11/24 05:56:36;;;;;;;22.23;12.93;;;;;;;-3.30;93.72;96108.59;5033464;28;20232;-84
2021/11/24 05:59:01;;;;;;;18.23;12.90;;;;;;;-3.26;93.55;96104.25;5034695;28;20233;-82
2021/11/24 06:01:26;;;;;;;18.53;11.83;;;;;;;-3.28;93.88;96106.81;5017087;28;20179;-83
2021/11/24 06:03:52;;;;;;;17.87;12.43;;;;;;;-3.27;93.44;96102.56;5034933;28;20678;-83
2021/11/24 06:06:17;;;;;;;19.03;11.77;;;;;;;-3.27;94.42;96102.56;5017328;28;20708;-83
2021/11/24 06:08:42;;;;;;;18.40;12.53;;;;;;;-3.23;93.80;96097.34;5034272;28;20266;-84
2021/11/24 06:11:08;;;;;;;22.97;12.83;;;;;;;-3.26;93.97;96106.78;5033002;28;20181;-84
2021/11/24 06:13:33;;;;;;;18.53;12.07;;;;;;;-3.26;93.60;96106.78;5035046;28;20198;-82
2021/11/24 06:15:58;;;;;;;17.97;12.17;;;;;;;-3.31;93.81;96106.09;5018893;28;20559;-83
2021/11/24 06:18:23;;;;;;;17.83;12.83;;;;;;;-3.30;93.90;96098.44;5019847;28;20178;-84
2021/11/24 06:20:49;;;;;;;17.93;12.00;;;;;;;-3.25;93.70;96105.91;5019760;28;20670;-83
2021/11/24 06:23:14;;;;;;;16.43;12.50;;;;;;;-3.33;94.23;96096.00;5032973;28;20194;-83
2021/11/24 06:25:39;;;;;;;18.17;13.10;;;;;;;-3.27;94.24;96100.03;5018276;28;20185;-83
2021/11/24 06:28:05;;;;;;;21.87;13.03;;;;;;;-3.30;94.29;96098.44;5018364;28;20228;-84
2021/11/24 06:30:31;;;;;;;20.20;13.63;;;;;;;-3.29;94.19;96096.72;5035143;28;20179;-83
2021/11/24 06:32:56;;;;;;;17.87;12.67;;;;;;;-3.34;94.46;96096.88;5033850;28;20219;-84
2021/11/24 06:35:22;;;;;;;20.47;15.00;;;;;;;-3.33;94.32;96095.19;5018181;28;20261;-84
2021/11/24 06:37:47;;;;;;;20.43;13.13;;;;;;;-3.31;94.21;96091.69;5018272;28;20182;-84
2021/11/24 06:40:14;;;;;;;18.87;13.80;;;;;;;-3.37;94.68;96091.88;5019162;28;20189;-83
2021/11/24 06:42:39;;;;;;;22.73;14.27;;;;;;;-3.33;94.81;96090.09;5042388;28;20269;-84
2021/11/24 06:45:05;;;;;;;17.03;13.60;;;;;;;-3.31;94.28;96093.41;5023289;28;20239;-83
2021/11/24 06:47:30;;;;;;;20.37;13.27;;;;;;;-3.33;94.59;96087.56;5042791;28;20214;-83
2021/11/24 06:49:56;;;;;;;17.13;13.50;;;;;;;-3.40;94.58;96091.16;5024737;28;20182;-84
2021/11/24 06:52:21;;;;;;;20.90;14.03;;;;;;;-3.45;95.24;96089.59;5024263;28;20198;-84
2021/11/24 06:54:47;;;;;;;21.73;13.70;;;;;;;-3.48;94.99;96096.50;5025923;28;20183;-83
2021/11/24 06:57:12;;;;;;;21.47;13.47;;;;;;;-3.47;94.49;96091.34;5034611;28;20166;-82
2021/11/24 06:59:37;;;;;;;18.93;13.13;;;;;;;-3.49;94.76;96092.31;5017074;28;20186;-82
2021/11/24 07:02:03;;;;;;;17.33;12.77;;;;;;;-3.47;94.33;96085.44;5017099;28;20203;-82
2021/11/24 07:04:28;;;;;;;20.10;13.27;;;;;;;-3.58;94.56;96085.81;5033088;28;20174;-83
2021/11/24 07:06:54;;;;;;;16.20;12.03;;;;;;;-3.59;93.92;96085.88;5032368;28;20206;-82
2021/11/24 07:09:19;;;;;;;16.07;11.70;;;;;;;-3.49;93.91;96085.50;5016378;28;20225;-78
2021/11/24 07:11:44;;;;;;;19.50;13.60;;;;;;;-3.51;93.46;96089.81;5032595;28;20187;-82
2021/11/24 07:14:10;;;;;;;16.93;12.33;;;;;;;-3.51;92.94;96089.00;5034190;28;20178;-84
2021/11/24 07:16:36;;;;;;;20.10;13.13;;;;;;;-3.61;93.61;96088.47;5032640;28;20172;-84
2021/11/24 07:19:02;;;;;;;20.23;11.90;;;;;;;-3.64;93.64;96088.53;5016035;28;20193;-83
2021/11/24 07:21:27;;;;;;;18.43;12.60;;;;;;;-3.60;93.85;96090.13;5016307;28;20638;-83
2021/11/24 07:23:52;;;;;;;17.07;11.57;;;;;;;-3.71;94.10;96089.59;5016045;28;20222;-84
2021/11/24 07:26:18;;;;;;;15.77;11.70;;;;;;;-3.68;93.29;96091.22;5016257;28;20197;-83
2021/11/24 07:28:43;;;;;;;16.77;11.70;;;;;;;-3.87;93.23;96094.34;5032139;28;20308;-82
2021/11/24 07:31:09;;;;;;;20.33;13.40;;;;;;;-3.90;93.78;96096.97;5032251;28;20282;-84
2021/11/24 07:33:34;;;;;;;16.33;13.13;;;;;;;-3.82;94.28;96105.16;5032430;28;20619;-84
2021/11/24 07:36:00;;;;;;;22.33;13.63;;;;;;;-3.85;94.56;96096.84;5015734;28;20237;-84
2021/11/24 07:38:25;;;;;;;19.53;13.77;;;;;;;-3.79;94.68;96094.94;5015179;28;20174;-82
2021/11/24 07:40:50;;;;;;;20.30;13.33;;;;;;;-3.70;94.51;96091.28;5014737;28;20202;-84
2021/11/24 07:43:16;;;;;;;20.40;14.10;;;;;;;-3.62;94.25;96093.56;5013730;28;20681;-83
2021/11/24 07:45:41;;;;;;;17.53;13.40;;;;;;;-3.54;94.18;96089.91;5030779;28;20178;-82
2021/11/24 07:48:07;;;;;;;18.33;14.20;;;;;;;-3.54;94.31;96089.06;5013712;28;20248;-83
2021/11/24 07:50:32;;;;;;;23.13;15.70;;;;;;;-3.48;94.64;96091.41;5033256;28;20170;-83
2021/11/24 07:52:57;;;;;;;21.57;15.17;;;;;;;-3.39;94.20;96093.66;5031512;28;20198;-82
2021/11/24 07:55:23;;;;;;;25.70;14.87;;;;;;;-3.37;94.24;96083.44;5013991;28;20233;-82
2021/11/24 07:57:48;;;;;;;21.67;14.83;;;;;;;-3.33;93.97;96078.22;5014509;28;20167;-81
2021/11/24 08:00:14;;;;;;;23.53;16.47;;;;;;;-3.32;93.58;96077.34;5018098;28;20656;-82
2021/11/24 08:02:40;;;;;;;22.57;15.90;;;;;;;-3.30;93.70;96083.19;5034039;28;20674;-82
2021/11/24 08:05:07;;;;;;;23.77;15.77;;;;;;;-3.26;94.13;96081.41;5018132;28;20194;-82
2021/11/24 08:07:33;;;;;;;23.33;15.60;;;;;;;-3.22;93.67;96073.59;5018054;28;20585;-81
2021/11/24 08:09:59;;;;;;;24.93;16.50;;;;;;;-3.16;93.52;96065.78;5034560;28;20206;-82
2021/11/24 08:12:25;;;;;;;28.70;15.37;;;;;;;-3.06;94.06;96068.00;5033516;28;20229;-82
2021/11/24 08:14:52;;;;;;;20.53;14.07;;;;;;;-3.02;93.95;96061.94;5018127;28;20276;-82
2021/11/24 08:17:17;;;;;;;23.80;15.67;;;;;;;-2.98;93.69;96055.88;5034295;28;20232;-84
2021/11/24 08:19:42;;;;;;;24.97;15.67;;;;;;;-2.93;93.76;96053.97;5018783;28;20188;-82
2021/11/24 08:22:08;;;;;;;24.50;16.47;;;;;;;-2.89;93.46;96053.84;5036080;28;20277;-84
2021/11/24 08:24:33;;;;;;;24.27;15.67;;;;;;;-2.80;93.42;96055.22;5036161;28;20682;-84
2021/11/24 08:26:58;;;;;;;24.87;15.40;;;;;;;-2.81;93.82;96056.13;5035176;28;20644;-82
2021/11/24 08:29:24;;;;;;;23.77;16.10;;;;;;;-2.76;93.17;96054.22;5018117;28;20526;-82
2021/11/24 08:31:49;;;;;;;23.07;15.10;;;;;;;-2.67;93.51;96048.78;5018713;28;20185;-82
2021/11/24 08:34:14;;;;;;;21.03;14.83;;;;;;;-2.61;93.20;96048.59;5034491;28;20757;-82
2021/11/24 08:36:40;;;;;;;24.60;15.27;;;;;;;-2.51;93.14;96044.00;5018065;28;20811;-83
2021/11/24 08:39:06;;;;;;;22.07;15.50;;;;;;;-2.48;93.52;96043.88;5034539;28;20206;-83
2021/11/24 08:41:31;;;;;;;22.67;15.93;;;;;;;-2.39;93.28;96042.69;5033670;28;20650;-83
2021/11/24 08:43:57;;;;;;;25.20;15.33;;;;;;;-2.33;92.42;96039.94;5017687;28;20539;-83
2021/11/24 08:46:22;;;;;;;21.27;15.50;;;;;;;-2.37;92.29;96025.69;5017666;28;20170;-83
2021/11/24 08:48:47;;;;;;;21.80;15.83;;;;;;;-2.36;92.53;96032.44;5017229;28;20210;-81
2021/11/24 08:51:13;;;;;;;22.90;15.77;;;;;;;-2.26;92.16;96031.19;5016786;28;20201;-82
2021/11/24 08:53:38;;;;;;;20.53;14.93;;;;;;;-2.18;92.12;96030.91;5033328;28;20191;-83
2021/11/24 08:56:04;;;;;;;24.17;15.77;;;;;;;-2.18;91.61;96029.19;5016288;28;20179;-83
2021/11/24 08:58:29;;;;;;;24.30;16.37;;;;;;;-2.19;92.10;96016.53;5035214;28;20172;-83
2021/11/24 09:00:54;;;;;;;25.57;15.83;;;;;;;-2.14;91.59;96020.53;5017212;28;20649;-83
2021/11/24 09:03:21;;;;;;;23.23;15.80;;;;;;;-2.04;91.41;96016.72;5016870;28;20210;-79
2021/11/24 09:05:46;;;;;;;22.87;16.77;;;;;;;-1.99;91.42;96021.66;5032815;28;20178;-83
2021/11/24 09:08:12;;;;;;;24.13;15.60;;;;;;;-1.99;90.75;96021.66;5016199;28;20349;-83
2021/11/24 09:10:38;;;;;;;25.47;17.23;;;;;;;-2.15;90.91;96021.41;5015184;28;20178;-82
2021/11/24 09:13:04;;;;;;;25.67;17.77;;;;;;;-2.11;91.65;96022.16;5015533;28;20195;-82
2021/11/24 09:15:29;;;;;;;28.00;17.97;;;;;;;-2.11;91.54;96017.06;5016016;28;20635;-82
2021/11/24 09:17:54;;;;;;;27.93;18.37;;;;;;;-2.19;91.94;96022.44;5032641;28;20344;-81
2021/11/24 09:20:20;;;;;;;29.27;17.97;;;;;;;-2.23;92.02;96013.25;5032600;28;20174;-81
2021/11/24 09:22:47;;;;;;;29.47;17.20;;;;;;;-2.01;92.23;96015.81;5015256;28;20199;-82
2021/11/24 09:25:16;;;;;;;30.80;18.73;;;;;;;-1.89;92.31;96006.84;5015868;28;20215;-81
2021/11/24 09:27:59;;;;;;;28.63;17.77;;;;;;;-1.86;91.23;96001.63;5032291;28;20886;-81
2021/11/24 09:30:25;;;;;;;29.30;18.37;;;;;;;-1.90;91.57;96011.09;5032446;28;20175;-82
2021/11/24 09:32:51;;;;;;;28.33;18.27;;;;;;;-1.81;91.57;96005.66;5015024;28;20629;-81
2021/11/24 09:35:16;;;;;;;30.63;16.93;;;;;;;-1.83;91.97;96001.50;5033644;28;20194;-80
2021/11/24 09:37:42;;;;;;;29.53;17.20;;;;;;;-1.73;91.82;96002.78;5032904;28;20238;-82
2021/11/24 09:40:08;;;;;;;31.87;18.63;;;;;;;-1.68;92.22;96000.88;5016403;28;20174;-81
2021/11/24 09:42:36;;;;;;;32.47;18.87;;;;;;;-1.65;91.62;95998.22;5014925;28;20206;-81
2021/11/24 09:45:03;;;;;;;29.93;18.80;;;;;;;-1.57;92.23;95983.44;5015521;28;20274;-81
2021/11/24 09:47:29;;;;;;;28.60;18.30;;;;;;;-1.57;91.46;95988.53;5015387;28;20212;-80
2021/11/24 09:49:59;;;;;;;31.97;19.23;;;;;;;-1.47;91.60;95977.06;5015298;28;20276;-79
2021/11/24 09:52:25;;;;;;;36.70;20.60;;;;;;;-1.49;92.58;95981.41;5031450;28;20204;-81
2021/11/24 09:54:50;;;;;;;35.43;19.77;;;;;;;-1.28;91.51;95973.75;5031912;28;20175;-79
2021/11/24 09:57:18;;;;;;;31.60;20.33;;;;;;;-1.21;91.44;95965.78;5032133;28;20237;-81
2021/11/24 09:59:44;;;;;;;33.80;19.67;;;;;;;-1.07;90.96;95962.63;5032468;28;20264;-82
2021/11/24 10:02:11;;;;;;;32.97;20.07;;;;;;;-1.06;90.03;95956.66;5031848;28;20192;-83
2021/11/24 10:04:37;;;;;;;35.60;20.43;;;;;;;-1.10;90.67;95960.22;5032038;28;20184;-79
2021/11/24 10:07:02;;;;;;;34.40;20.00;;;;;;;-1.19;91.06;95952.97;5016182;28;20872;-81
2021/11/24 10:09:28;;;;;;;35.13;20.60;;;;;;;-1.23;90.52;95954.00;5016406;28;20699;-84
2021/11/24 10:11:53;;;;;;;33.70;20.30;;;;;;;-1.24;91.38;95957.41;5015827;28;20752;-84
2021/11/24 10:14:19;;;;;;;35.33;20.50;;;;;;;-1.26;91.88;95943.94;5033121;28;20208;-85
2021/11/24 10:16:46;;;;;;;33.53;20.47;;;;;;;-1.22;91.69;95941.19;5016109;28;20519;-84
2021/11/24 10:19:12;;;;;;;37.97;21.93;;;;;;;-1.09;91.58;95938.91;5016952;28;20795;-83
2021/11/24 10:21:54;;;;;;;37.67;21.27;;;;;;;-1.16;91.50;95942.63;5032811;28;20183;-81
2021/11/24 10:24:29;;;;;;;35.63;21.50;;;;;;;-1.16;92.65;95924.78;5015092;28;20273;-83
2021/11/24 10:26:54;;;;;;;34.80;19.43;;;;;;;-1.07;91.74;95926.94;5032517;28;20197;-80
2021/11/24 10:29:20;;;;;;;37.33;21.03;;;;;;;-1.16;92.23;95922.25;5015980;28;20230;-80
2021/11/24 10:32:01;;;;;;;34.83;20.60;;;;;;;-1.04;92.01;95921.72;5015019;28;20238;-82
2021/11/24 10:34:29;;;;;;;32.97;21.03;;;;;;;-1.08;92.47;95917.63;5016726;28;20176;-81
2021/11/24 10:37:06;;;;;;;37.67;22.10;;;;;;;-1.03;92.59;95910.63;5017832;28;20180;-83
2021/11/24 10:39:41;;;;;;;36.77;21.50;;;;;;;-1.02;92.60;95909.72;5035562;28;20279;-83
2021/11/24 10:42:13;;;;;;;39.93;21.63;;;;;;;-1.01;92.66;95901.19;5032686;28;20200;-83
2021/11/24 10:44:41;;;;;;;33.00;21.57;;;;;;;-1.03;92.30;95897.88;5017338;28;20171;-82
2021/11/24 10:47:07;;;;;;;38.53;21.70;;;;;;;-1.02;92.45;95898.69;5034152;28;20614;-82
2021/11/24 10:49:40;;;;;;;39.07;22.40;;;;;;;-0.97;93.00;95894.19;5017277;28;20207;-83
2021/11/24 10:52:35;;;;;;;38.53;21.40;;;;;;;-0.87;92.43;95892.91;5031589;28;20672;-83
2021/11/24 10:55:19;;;;;;;37.43;21.07;;;;;;;-0.96;93.05;95880.59;5032441;28;20492;-83
2021/11/24 10:57:58;;;;;;;39.77;22.83;;;;;;;-0.98;92.95;95880.63;5016922;28;20177;-83
2021/11/24 11:00:32;;;;;;;34.53;21.87;;;;;;;-0.84;92.80;95881.75;5015546;28;20177;-83
2021/11/24 11:02:58;;;;;;;42.87;23.37;;;;;;;-0.93;92.42;95871.06;5014579;28;20288;-83
2021/11/24 11:05:25;;;;;;;40.27;22.40;;;;;;;-0.91;92.39;95864.16;5031996;28;20602;-83
2021/11/24 11:07:50;;;;;;;37.83;21.83;;;;;;;-0.87;92.50;95857.22;5015130;28;20206;-83
2021/11/24 11:10:19;;;;;;;38.70;24.13;;;;;;;-0.89;92.65;95853.88;5034063;28;20594;-83
2021/11/24 11:12:47;;;;;;;34.60;20.83;;;;;;;-0.94;92.79;95863.50;5015376;28;20214;-84
2021/11/24 11:15:30;;;;;;;34.80;20.83;;;;;;;-0.79;92.97;95859.41;5032135;28;20181;-83
2021/11/24 11:18:26;;;;;;;36.00;21.83;;;;;;;-0.84;93.15;95861.34;5032127;28;20176;-83